createdAt,value
2017-07-12T00:00:16.933Z,22.28
2017-07-12T00:01:17.720Z,22.22
2017-07-12T00:02:18.359Z,22.23
2017-07-12T00:03:18.997Z,22.25
2017-07-12T00:04:19.634Z,22.22
2017-07-12T00:05:20.270Z,22.23
2017-07-12T00:06:20.906Z,22.18
2017-07-12T00:07:21.543Z,22.18
2017-07-12T00:08:22.185Z,22.14
2017-07-12T00:09:22.818Z,22.22
2017-07-12T00:10:23.758Z,22.14
2017-07-12T00:11:24.444Z,22.11
2017-07-12T00:12:25.083Z,22.14
2017-07-12T00:13:25.720Z,22.11
2017-07-12T00:14:26.306Z,22.15
2017-07-12T00:15:26.943Z,22.14
2017-07-12T00:16:27.580Z,22.11
2017-07-12T00:17:28.217Z,22.10
2017-07-12T00:18:29.056Z,22.10
2017-07-12T00:19:29.692Z,22.10
2017-07-12T00:20:30.328Z,22.11
2017-07-12T00:21:30.963Z,22.13
2017-07-12T00:22:31.601Z,22.11
2017-07-12T00:23:32.236Z,22.14
2017-07-12T00:24:33.024Z,22.13
2017-07-12T00:25:33.659Z,22.11
2017-07-12T00:26:34.299Z,22.14
2017-07-12T00:27:34.935Z,22.15
2017-07-12T00:28:35.571Z,22.13
2017-07-12T00:29:36.210Z,22.10
2017-07-12T00:30:36.849Z,22.14
2017-07-12T00:31:37.484Z,22.15
2017-07-12T00:32:38.322Z,22.15
2017-07-12T00:33:38.961Z,22.15
2017-07-12T00:34:39.697Z,22.11
2017-07-12T00:35:40.386Z,22.06
2017-07-12T00:36:41.023Z,22.14
2017-07-12T00:37:41.710Z,22.14
2017-07-12T00:38:42.348Z,22.08
2017-07-12T00:39:42.984Z,22.14
2017-07-12T00:40:43.821Z,22.14
2017-07-12T00:41:44.456Z,22.13
2017-07-12T00:42:45.093Z,22.10
2017-07-12T00:43:45.730Z,22.13
2017-07-12T00:44:46.370Z,22.08
2017-07-12T00:45:47.008Z,22.07
2017-07-12T00:46:47.644Z,22.08
2017-07-12T00:47:48.280Z,22.06
2017-07-12T00:48:48.917Z,22.00
2017-07-12T00:49:49.706Z,22.07
2017-07-12T00:50:50.342Z,22.07
2017-07-12T00:51:50.980Z,22.06
2017-07-12T00:52:51.618Z,22.06
2017-07-12T00:53:52.256Z,22.04
2017-07-12T00:54:52.895Z,22.04
2017-07-12T00:55:53.533Z,22.06
2017-07-12T00:56:54.171Z,22.06
2017-07-12T00:57:55.006Z,22.02
2017-07-12T00:58:55.648Z,22.02
2017-07-12T00:59:56.279Z,22.02
2017-07-12T01:00:56.916Z,22.00
2017-07-12T01:01:57.554Z,22.10
2017-07-12T01:02:58.189Z,22.10
2017-07-12T01:03:58.827Z,22.07
2017-07-12T01:04:59.513Z,22.11
2017-07-12T01:06:00.353Z,22.00
